Time;durP1;ratioP1;P1;durP2;ratioP2;P2;SDS_P1;SDS_P2;PMS_P1;PMS_P2;Temp;Humidity;BMP_temperature;BMP_pressure;BME280_temperature;BME280_humidity;BME280_pressure;Samples;Min_cycle;Max_cycle;Signal;HPM_P1;HPM_P2
2023/01/05 00:01:43;;;;;;;6.45;5.80;;;;;;;8.19;100.00;99537.30;1792648;78;26485;-77
2023/01/05 00:04:10;;;;;;;8.33;5.78;;;;;;;8.21;100.00;99528.59;1799224;78;28276;-76
2023/01/05 00:06:38;;;;;;;6.83;5.37;;;;;;;8.24;100.00;99550.84;1800631;78;25841;-77
2023/01/05 00:09:07;;;;;;;8.95;5.70;;;;;;;8.25;100.00;99541.37;1772488;79;25940;-76
2023/01/05 00:22:51;;;;;;;7.97;5.67;;;;;;;8.34;100.00;99519.34;1795109;78;25931;-76
2023/01/05 00:25:25;;;;;;;6.03;5.22;;;;;;;8.36;100.00;99519.44;1803567;78;25789;-76
2023/01/05 00:27:52;;;;;;;5.97;4.80;;;;;;;8.38;100.00;99506.72;1799835;78;25992;-77
2023/01/05 00:30:22;;;;;;;7.00;5.37;;;;;;;8.41;100.00;99508.17;1800600;78;28225;-77
2023/01/05 00:32:49;;;;;;;7.53;4.77;;;;;;;8.43;100.00;99506.13;1798454;78;25774;-76
2023/01/05 00:35:16;;;;;;;5.35;4.55;;;;;;;8.44;100.00;99508.62;1777955;79;25595;-76
2023/01/05 00:37:44;;;;;;;4.83;3.70;;;;;;;8.46;100.00;99502.56;1784024;79;25793;-76
2023/01/05 00:40:14;;;;;;;4.80;3.87;;;;;;;8.49;100.00;99497.31;1796770;78;26492;-76
2023/01/05 00:42:41;;;;;;;5.80;4.30;;;;;;;8.51;100.00;99488.09;1804391;78;28222;-76
2023/01/05 00:45:12;;;;;;;4.90;3.80;;;;;;;8.54;100.00;99473.53;1792940;78;26417;-77
2023/01/05 00:47:38;;;;;;;6.03;3.83;;;;;;;8.56;100.00;99475.48;1766087;79;34812;-76
2023/01/05 00:50:07;;;;;;;5.80;4.15;;;;;;;8.59;100.00;99475.09;1798872;78;26542;-77
2023/01/05 00:52:34;;;;;;;5.33;3.85;;;;;;;8.62;100.00;99476.55;1799039;78;25801;-76
2023/01/05 00:55:01;;;;;;;4.33;3.50;;;;;;;8.63;100.00;99476.84;1732435;81;28278;-76
2023/01/05 00:57:27;;;;;;;4.15;3.70;;;;;;;8.65;100.00;99469.45;1735441;80;25710;-77
2023/01/05 00:59:54;;;;;;;5.47;4.03;;;;;;;8.65;100.00;99476.13;1805151;78;25796;-76
2023/01/05 01:02:21;;;;;;;4.67;3.90;;;;;;;8.65;100.00;99469.45;1804323;78;25870;-76
2023/01/05 01:04:47;;;;;;;5.25;3.37;;;;;;;8.66;100.00;99479.12;1768650;79;25862;-77
2023/01/05 01:07:13;;;;;;;5.97;4.35;;;;;;;8.65;100.00;99473.45;1756327;80;27442;-76
2023/01/05 01:09:40;;;;;;;5.53;3.50;;;;;;;8.63;100.00;99464.83;1755117;80;25874;-76
2023/01/05 01:12:07;;;;;;;4.40;3.80;;;;;;;8.62;100.00;99453.86;1756678;80;26332;-76
2023/01/05 01:14:35;;;;;;;4.30;3.83;;;;;;;8.61;100.00;99461.53;1756858;80;26532;-77
2023/01/05 01:17:01;;;;;;;5.05;3.87;;;;;;;8.60;100.00;99450.56;1756909;80;25901;-76
2023/01/05 01:19:27;;;;;;;6.17;3.80;;;;;;;8.59;100.00;99456.91;1756403;80;27434;-76
2023/01/05 01:21:54;;;;;;;4.12;3.30;;;;;;;8.57;100.00;99435.77;1757394;80;25806;-77
2023/01/05 01:24:24;;;;;;;4.20;3.65;;;;;;;8.57;100.00;99441.62;1756470;80;25818;-77
2023/01/05 01:26:52;;;;;;;3.92;3.52;;;;;;;8.55;100.00;99429.81;1756058;80;26457;-76
2023/01/05 01:29:20;;;;;;;3.90;3.02;;;;;;;8.57;100.00;99425.60;1756319;80;26422;-76
2023/01/05 01:31:48;;;;;;;4.20;3.60;;;;;;;8.56;100.00;99428.77;1792235;78;27420;-77
2023/01/05 01:34:15;;;;;;;4.33;3.40;;;;;;;8.56;100.00;99418.09;1796055;78;25235;-76
2023/01/05 01:36:42;;;;;;;4.90;3.20;;;;;;;8.57;100.00;99416.27;1808242;78;26432;-76
2023/01/05 01:39:11;;;;;;;3.98;3.50;;;;;;;8.57;100.00;99394.41;1770891;79;25778;-76
2023/01/05 01:41:39;;;;;;;4.80;3.27;;;;;;;8.57;100.00;99410.92;1799978;78;25836;-76
2023/01/05 01:44:55;;;;;;;6.20;3.60;;;;;;;8.60;100.00;99419.88;1802228;78;27514;-77
2023/01/05 01:47:32;;;;;;;5.62;3.70;;;;;;;8.60;100.00;99401.98;1799732;78;25878;-76
2023/01/05 01:50:03;;;;;;;3.87;3.15;;;;;;;8.60;100.00;99387.30;1776174;79;25797;-76
2023/01/05 01:52:32;;;;;;;6.00;4.05;;;;;;;8.61;100.00;99386.30;1801278;78;27010;-77
2023/01/05 01:55:01;;;;;;;6.47;4.47;;;;;;;8.64;100.00;99405.89;1801535;78;25855;-76
2023/01/05 01:57:28;;;;;;;4.37;3.98;;;;;;;8.66;100.00;99401.17;1806611;78;27451;-77
2023/01/05 01:59:57;;;;;;;3.92;3.42;;;;;;;8.68;100.00;99391.64;1707367;81;25295;-76
2023/01/05 02:02:23;;;;;;;5.75;4.70;;;;;;;8.70;100.00;99402.94;1800995;78;25858;-76
2023/01/05 02:04:50;;;;;;;7.95;4.72;;;;;;;8.72;100.00;99396.88;1801232;78;26539;-76
2023/01/05 02:07:17;;;;;;;5.03;4.10;;;;;;;8.74;100.00;99388.16;1804862;78;25836;-76
2023/01/05 02:09:44;;;;;;;5.42;3.77;;;;;;;8.75;100.00;99389.27;1798317;78;27433;-77
2023/01/05 02:12:30;;;;;;;4.37;3.75;;;;;;;8.76;100.00;99390.11;1808848;78;25776;-77
2023/01/05 02:15:19;;;;;;;7.05;3.67;;;;;;;8.78;100.00;99394.22;1802703;78;25829;-76
2023/01/05 02:18:12;;;;;;;5.45;3.50;;;;;;;8.78;100.00;99387.55;1800657;79;26561;-76
2023/01/05 02:20:56;;;;;;;5.30;3.85;;;;;;;8.80;100.00;99384.66;1803581;78;26457;-76
2023/01/05 02:23:50;;;;;;;3.75;3.35;;;;;;;8.79;100.00;99377.16;1802536;79;27464;-77
2023/01/05 02:26:59;;;;;;;5.10;3.25;;;;;;;8.80;100.00;99372.64;1806674;79;25973;-77
2023/01/05 02:29:45;;;;;;;4.12;3.72;;;;;;;8.81;100.00;99371.63;1805774;79;25845;-77
2023/01/05 02:32:22;;;;;;;4.45;3.77;;;;;;;8.82;100.00;99367.41;1757854;80;26633;-77
2023/01/05 02:34:56;;;;;;;5.08;4.17;;;;;;;8.83;100.00;99364.23;1756494;80;25766;-77
2023/01/05 02:37:47;;;;;;;4.83;3.80;;;;;;;8.84;100.00;99363.20;1764278;80;28259;-77
2023/01/05 02:40:21;;;;;;;5.13;3.70;;;;;;;8.86;100.00;99367.31;1797837;79;26487;-77
2023/01/05 02:42:51;;;;;;;4.80;3.95;;;;;;;8.87;100.00;99359.63;1801060;77;25804;-77
2023/01/05 02:45:22;;;;;;;5.33;3.62;;;;;;;8.88;100.00;99354.57;1760470;80;26546;-76
2023/01/05 02:47:50;;;;;;;4.47;3.90;;;;;;;8.88;100.00;99357.75;1778449;79;25911;-76
2023/01/05 02:50:46;;;;;;;5.17;4.05;;;;;;;8.88;100.00;99353.73;1828769;78;28365;-76
2023/01/05 02:53:30;;;;;;;5.10;3.98;;;;;;;8.87;100.00;99350.78;1793372;78;25740;-77
2023/01/05 02:56:17;;;;;;;6.17;4.42;;;;;;;8.86;100.00;99350.45;1795879;78;25703;-79
2023/01/05 02:58:52;;;;;;;6.12;3.85;;;;;;;8.84;100.00;99353.34;1795253;78;26357;-79
2023/01/05 03:01:38;;;;;;;4.42;3.87;;;;;;;8.85;100.00;99348.83;1763915;79;25913;-77
2023/01/05 03:04:30;;;;;;;5.12;3.75;;;;;;;8.85;100.00;99344.83;1769836;79;27454;-77
2023/01/05 03:07:06;;;;;;;3.95;3.60;;;;;;;8.85;100.00;99347.50;1794859;78;26977;-77
2023/01/05 03:09:37;;;;;;;3.58;3.27;;;;;;;8.83;100.00;99338.87;1799806;78;25637;-76
2023/01/05 03:15:28;;;;;;;4.80;3.37;;;;;;;8.82;100.00;99312.68;1745461;79;25794;-78
2023/01/05 03:17:59;;;;;;;5.33;3.45;;;;;;;8.82;100.00;99311.84;1796775;78;28242;-76
2023/01/05 03:20:30;;;;;;;3.62;3.25;;;;;;;8.83;100.00;99306.83;1798580;78;25938;-77
2023/01/05 03:38:12;;;;;;;3.83;2.98;;;;;;;8.80;100.00;99310.73;1805056;78;25789;-77
2023/01/05 03:40:40;;;;;;;5.65;3.25;;;;;;;8.79;100.00;99303.73;1777757;79;25845;-78
2023/01/05 03:43:07;;;;;;;4.60;4.20;;;;;;;8.80;100.00;99307.23;1800900;78;25544;-78
2023/01/05 03:45:41;;;;;;;5.08;3.37;;;;;;;8.79;100.00;99292.25;1797959;78;27528;-78
2023/01/05 03:48:08;;;;;;;3.42;3.12;;;;;;;8.77;100.00;99296.45;1767123;79;25806;-78
2023/01/05 03:50:36;;;;;;;4.37;3.33;;;;;;;8.77;100.00;99299.66;1800518;78;25761;-78
2023/01/05 03:53:03;;;;;;;4.72;3.52;;;;;;;8.75;100.00;99295.00;1797203;78;25793;-77
2023/01/05 03:55:30;;;;;;;4.70;3.90;;;;;;;8.74;100.00;99296.05;1796240;78;25729;-78
2023/01/05 03:57:57;;;;;;;3.83;3.50;;;;;;;8.74;100.00;99296.88;1757790;79;27435;-78
2023/01/05 04:00:24;;;;;;;4.58;3.40;;;;;;;8.73;100.00;99302.40;1756997;80;26451;-78
2023/01/05 04:02:52;;;;;;;4.15;2.90;;;;;;;8.73;100.00;99298.39;1757480;80;25923;-78
2023/01/05 04:05:20;;;;;;;3.80;2.67;;;;;;;8.74;100.00;99300.05;1755711;80;26584;-78
2023/01/05 04:07:46;;;;;;;6.95;2.72;;;;;;;8.73;100.00;99294.39;1757100;80;25900;-78
2023/01/05 04:10:14;;;;;;;2.85;2.27;;;;;;;8.72;100.00;99304.78;1757554;80;46405;-78
2023/01/05 04:12:41;;;;;;;2.45;2.25;;;;;;;8.72;100.00;99306.11;1726932;81;26140;-78
2023/01/05 04:15:09;;;;;;;4.55;2.37;;;;;;;8.71;100.00;99296.45;1753660;80;25744;-78
2023/01/05 04:17:37;;;;;;;2.90;2.15;;;;;;;8.71;100.00;99309.80;1731419;81;26496;-78
2023/01/05 04:20:04;;;;;;;4.15;2.40;;;;;;;8.71;100.00;99306.62;1756998;80;26478;-78
2023/01/05 04:22:32;;;;;;;3.87;2.87;;;;;;;8.71;100.00;99314.63;1754077;80;28286;-78
2023/01/05 04:24:58;;;;;;;3.98;2.90;;;;;;;8.73;100.00;99315.75;1755388;80;25938;-78
2023/01/05 04:27:26;;;;;;;4.80;3.87;;;;;;;8.73;100.00;99320.58;1773760;79;25850;-78
2023/01/05 04:29:52;;;;;;;5.92;3.67;;;;;;;8.72;100.00;99322.95;1803288;78;25753;-78
2023/01/05 04:32:19;;;;;;;4.80;3.62;;;;;;;8.75;100.00;99323.03;1773952;80;25708;-78
2023/01/05 04:34:47;;;;;;;3.72;3.37;;;;;;;8.76;100.00;99314.84;1805550;79;27417;-78
2023/01/05 04:37:13;;;;;;;4.78;3.95;;;;;;;8.77;100.00;99314.34;1803008;78;25943;-78
2023/01/05 04:39:40;;;;;;;4.60;4.22;;;;;;;8.76;100.00;99318.84;1780130;79;26317;-78
2023/01/05 04:42:07;;;;;;;7.30;4.10;;;;;;;8.74;100.00;99324.08;1804780;78;25789;-78
2023/01/05 04:44:33;;;;;;;6.35;4.42;;;;;;;8.74;100.00;99321.41;1770675;80;25764;-78
2023/01/05 04:47:01;;;;;;;6.87;4.28;;;;;;;8.74;100.00;99326.25;1773100;79;28278;-78
2023/01/05 04:49:28;;;;;;;9.38;6.05;;;;;;;8.76;100.00;99318.02;1808030;79;26032;-78
2023/01/05 04:51:54;;;;;;;8.05;4.42;;;;;;;8.74;100.00;99318.74;1805818;79;25743;-78
2023/01/05 04:54:21;;;;;;;12.70;6.80;;;;;;;8.74;100.00;99306.22;1771816;80;26435;-78
2023/01/05 04:56:48;;;;;;;7.45;4.95;;;;;;;8.72;100.00;99319.46;1757816;80;25838;-78
2023/01/05 04:59:14;;;;;;;7.15;3.70;;;;;;;8.70;100.00;99321.52;1756097;80;27448;-78
2023/01/05 05:01:44;;;;;;;5.10;2.77;;;;;;;8.70;100.00;99318.34;1782197;79;25534;-78
2023/01/05 05:04:11;;;;;;;4.85;2.90;;;;;;;8.68;100.00;99304.89;1780592;79;26512;-78
2023/01/05 05:06:38;;;;;;;3.02;1.80;;;;;;;8.68;100.00;99312.89;1783141;79;26422;-78
2023/01/05 05:09:05;;;;;;;3.37;1.62;;;;;;;8.67;100.00;99308.56;1772859;80;25839;-78
2023/01/05 05:11:31;;;;;;;2.85;1.35;;;;;;;8.65;100.00;99295.44;1779751;79;28730;-78
2023/01/05 05:13:57;;;;;;;1.92;1.30;;;;;;;8.65;100.00;99313.29;1807826;78;25288;-78
2023/01/05 05:16:24;;;;;;;2.62;1.10;;;;;;;8.63;100.00;99308.17;1804033;79;25812;-78
2023/01/05 05:18:51;;;;;;;2.58;1.10;;;;;;;8.62;100.00;99322.53;1758724;81;25779;-78
2023/01/05 05:21:20;;;;;;;2.72;1.32;;;;;;;8.62;100.00;99315.05;1758982;80;25311;-78
2023/01/05 05:23:46;;;;;;;1.37;1.00;;;;;;;8.61;100.00;99313.40;1756909;80;27451;-78
2023/01/05 05:26:13;;;;;;;2.80;1.22;;;;;;;8.61;100.00;99314.73;1771335;79;26423;-78
2023/01/05 05:28:39;;;;;;;4.33;1.52;;;;;;;8.60;100.00;99318.45;1782080;79;25847;-78
2023/01/05 05:31:05;;;;;;;4.67;1.40;;;;;;;8.59;100.00;99312.78;1807720;78;27243;-78
2023/01/05 05:33:32;;;;;;;2.65;1.20;;;;;;;8.57;100.00;99317.00;1771755;80;25763;-78
2023/01/05 05:35:58;;;;;;;3.08;0.90;;;;;;;8.57;100.00;99313.50;1772684;79;27456;-78
2023/01/05 05:38:24;;;;;;;2.45;1.05;;;;;;;8.54;100.00;99314.22;1802899;79;25445;-78
2023/01/05 05:40:51;;;;;;;1.40;0.90;;;;;;;8.53;100.00;99314.44;1802135;79;25795;-78
2023/01/05 05:43:17;;;;;;;1.77;1.25;;;;;;;8.51;100.00;99315.95;1736024;82;26548;-78
2023/01/05 05:45:44;;;;;;;1.95;1.12;;;;;;;8.52;100.00;99322.13;1804430;79;25876;-78
2023/01/05 05:48:10;;;;;;;1.95;1.20;;;;;;;8.52;100.00;99324.79;1806009;79;27463;-78
2023/01/05 05:50:36;;;;;;;1.87;1.17;;;;;;;8.51;100.00;99328.50;1780612;79;26396;-78
2023/01/05 05:53:07;;;;;;;4.97;1.57;;;;;;;8.51;100.00;99340.51;1805345;78;25512;-78
2023/01/05 05:55:33;;;;;;;9.53;6.12;;;;;;;8.50;100.00;99334.34;1796572;78;27089;-78
2023/01/05 05:58:00;;;;;;;9.48;5.80;;;;;;;8.52;100.00;99335.47;1738214;80;25779;-78
2023/01/05 06:00:26;;;;;;;7.03;3.35;;;;;;;8.52;100.00;99336.30;1797048;78;27420;-78
2023/01/05 06:02:52;;;;;;;6.33;2.92;;;;;;;8.54;100.00;99333.41;1804163;78;26004;-78
2023/01/05 06:05:19;;;;;;;4.90;2.20;;;;;;;8.54;100.00;99329.41;1802466;78;25955;-78
2023/01/05 06:07:45;;;;;;;3.55;1.75;;;;;;;8.55;100.00;99328.40;1775843;79;26490;-78
2023/01/05 06:10:11;;;;;;;7.95;2.58;;;;;;;8.54;100.00;99326.73;1779710;79;25725;-77
2023/01/05 06:12:38;;;;;;;4.58;1.77;;;;;;;8.56;100.00;99332.69;1797231;78;27412;-77
2023/01/05 06:15:05;;;;;;;3.70;1.95;;;;;;;8.54;100.00;99329.41;1790706;78;26077;-78
2023/01/05 06:17:32;;;;;;;6.53;2.17;;;;;;;8.53;100.00;99327.78;1806366;78;25859;-78
2023/01/05 06:19:58;;;;;;;6.25;2.50;;;;;;;8.52;100.00;99326.95;1796361;78;26382;-77
2023/01/05 06:22:24;;;;;;;10.63;2.75;;;;;;;8.53;100.00;99329.91;1802175;77;25771;-77
2023/01/05 06:24:51;;;;;;;6.78;3.08;;;;;;;8.53;100.00;99326.45;1798296;78;27426;-78
2023/01/05 06:27:18;;;;;;;11.45;4.60;;;;;;;8.55;100.00;99325.73;1798309;78;25950;-90
2023/01/05 06:29:44;;;;;;;12.63;5.80;;;;;;;8.55;100.00;99325.19;1793924;77;27297;-91
2023/01/05 06:32:10;;;;;;;8.10;3.85;;;;;;;8.57;100.00;99325.52;1800809;78;25786;-88
2023/01/05 06:34:36;;;;;;;15.68;9.45;;;;;;;8.57;100.00;99335.69;1803100;78;25713;-88
2023/01/05 06:37:05;;;;;;;6.47;3.27;;;;;;;8.57;100.00;99331.68;1774610;79;27443;-86
2023/01/05 06:39:31;;;;;;;6.72;4.50;;;;;;;8.58;100.00;99337.31;1807072;79;26302;-78
2023/01/05 06:41:58;;;;;;;7.50;4.65;;;;;;;8.59;100.00;99338.97;1804023;79;25698;-76
2023/01/05 06:44:24;;;;;;;5.55;4.30;;;;;;;8.60;100.00;99330.45;1793943;79;26538;-78
2023/01/05 06:46:50;;;;;;;11.00;5.12;;;;;;;8.60;100.00;99330.45;1794614;78;26322;-77
2023/01/05 06:49:17;;;;;;;9.00;6.67;;;;;;;8.61;100.00;99326.74;1778269;79;27460;-77
2023/01/05 06:51:43;;;;;;;7.72;4.97;;;;;;;8.61;100.00;99328.91;1799482;78;25739;-76
2023/01/05 06:54:10;;;;;;;6.20;4.45;;;;;;;8.62;100.00;99333.73;1800816;78;25789;-77
2023/01/05 06:56:36;;;;;;;5.22;4.65;;;;;;;8.62;100.00;99325.20;1793633;78;26333;-78
2023/01/05 06:59:03;;;;;;;7.75;4.35;;;;;;;8.64;100.00;99330.35;1788796;78;25799;-77
2023/01/05 07:01:29;;;;;;;6.60;3.37;;;;;;;8.64;100.00;99334.36;1795066;79;27459;-77
2023/01/05 07:03:55;;;;;;;8.10;3.77;;;;;;;8.64;100.00;99333.81;1800685;79;25747;-77
2023/01/05 07:06:22;;;;;;;6.67;4.10;;;;;;;8.65;100.00;99338.65;1762127;79;25797;-77
2023/01/05 07:08:49;;;;;;;8.28;3.45;;;;;;;8.65;100.00;99337.31;1794727;78;26144;-77
2023/01/05 07:11:15;;;;;;;5.83;3.22;;;;;;;8.66;100.00;99330.43;1791147;78;25798;-76
2023/01/05 07:13:41;;;;;;;4.90;3.52;;;;;;;8.67;100.00;99337.94;1771514;79;27435;-77
2023/01/05 07:16:08;;;;;;;7.58;3.12;;;;;;;8.69;100.00;99343.38;1777638;79;26484;-78
2023/01/05 07:18:35;;;;;;;4.80;3.02;;;;;;;8.70;100.00;99351.71;1768808;79;26344;-77
2023/01/05 07:21:01;;;;;;;6.05;2.67;;;;;;;8.72;100.00;99352.83;1778502;79;26915;-77
2023/01/05 07:23:28;;;;;;;4.92;3.15;;;;;;;8.75;100.00;99351.06;1799849;78;25879;-77
2023/01/05 07:25:55;;;;;;;3.20;2.62;;;;;;;8.76;100.00;99355.39;1793866;78;28247;-76
2023/01/05 07:28:21;;;;;;;6.87;2.90;;;;;;;8.77;100.00;99349.84;1754840;79;25777;-77
2023/01/05 07:30:51;;;;;;;6.65;3.15;;;;;;;8.80;100.00;99355.30;1779631;79;26015;-76
2023/01/05 07:33:18;;;;;;;4.72;2.58;;;;;;;8.81;100.00;99356.95;1796251;78;25779;-77
2023/01/05 07:35:45;;;;;;;6.53;3.10;;;;;;;8.83;100.00;99354.36;1790942;78;25805;-77
2023/01/05 07:38:11;;;;;;;6.05;3.17;;;;;;;8.83;100.00;99353.02;1793688;78;27821;-77
2023/01/05 07:40:37;;;;;;;5.92;3.67;;;;;;;8.85;100.00;99360.84;1789452;78;25721;-77
2023/01/05 07:43:04;;;;;;;6.95;4.12;;;;;;;8.85;100.00;99353.67;1797927;78;25864;-77
2023/01/05 07:45:30;;;;;;;5.67;3.70;;;;;;;8.87;100.00;99353.45;1801435;78;25804;-77
2023/01/05 07:47:56;;;;;;;6.50;3.70;;;;;;;8.86;100.00;99356.62;1791685;78;25818;-77
2023/01/05 07:50:23;;;;;;;5.17;3.40;;;;;;;8.86;100.00;99353.95;1724924;81;28256;-77
2023/01/05 07:52:49;;;;;;;4.37;3.27;;;;;;;8.87;100.00;99356.13;1753530;80;25714;-77
2023/01/05 07:55:15;;;;;;;4.03;2.65;;;;;;;8.88;100.00;99355.91;1758079;80;25289;-77
2023/01/05 07:57:42;;;;;;;5.95;2.92;;;;;;;8.87;100.00;99359.63;1752746;80;26516;-78
2023/01/05 08:00:10;;;;;;;5.78;2.90;;;;;;;8.89;100.00;99370.91;1753044;80;25752;-77
2023/01/05 08:02:41;;;;;;;5.42;2.70;;;;;;;8.88;100.00;99369.26;1752067;80;27265;-77
2023/01/05 08:05:08;;;;;;;3.83;2.55;;;;;;;8.88;100.00;99366.59;1750456;80;25804;-77
2023/01/05 08:07:35;;;;;;;5.67;2.58;;;;;;;8.89;100.00;99370.09;1755810;80;26314;-76
2023/01/05 08:15:32;;;;;;;7.72;2.80;;;;;;;8.94;100.00;99373.77;1753345;80;27480;-77
2023/01/05 08:17:58;;;;;;;7.05;3.60;;;;;;;8.95;100.00;99370.09;1754204;80;26462;-77
2023/01/05 08:20:25;;;;;;;8.60;3.90;;;;;;;8.96;100.00;99375.72;1752156;80;26419;-77
2023/01/05 08:22:52;;;;;;;7.92;3.67;;;;;;;8.98;100.00;99384.88;1785973;79;26837;-77
2023/01/05 08:25:19;;;;;;;7.45;4.60;;;;;;;8.98;100.00;99384.88;1799417;78;25920;-77
2023/01/05 08:27:46;;;;;;;16.77;9.23;;;;;;;8.99;100.00;99387.34;1799797;78;26889;-76
2023/01/05 08:30:13;;;;;;;19.02;12.28;;;;;;;9.00;100.00;99393.52;1752539;79;25965;-76
2023/01/05 08:32:40;;;;;;;9.53;7.10;;;;;;;9.02;100.00;99392.79;1755814;80;25790;-77
2023/01/05 08:35:09;;;;;;;10.53;7.47;;;;;;;9.03;100.00;99392.58;1758531;81;25908;-78
2023/01/05 08:37:35;;;;;;;11.33;6.33;;;;;;;9.05;100.00;99383.01;1734708;82;25783;-77
2023/01/05 08:40:02;;;;;;;10.53;4.72;;;;;;;9.04;100.00;99400.08;1794012;79;28212;-77
2023/01/05 08:42:28;;;;;;;8.73;4.60;;;;;;;9.02;100.00;99397.63;1799357;78;25790;-77
2023/01/05 08:44:54;;;;;;;6.53;3.33;;;;;;;9.01;100.00;99413.33;1805853;78;26389;-77
2023/01/05 08:47:20;;;;;;;12.55;5.62;;;;;;;9.00;100.00;99406.33;1787374;77;26880;-78
2023/01/05 08:49:48;;;;;;;7.85;4.75;;;;;;;8.98;100.00;99416.94;1798285;78;25886;-78
2023/01/05 08:52:14;;;;;;;7.85;3.60;;;;;;;8.97;100.00;99419.28;1774281;79;28265;-77
2023/01/05 08:54:42;;;;;;;6.75;3.33;;;;;;;8.97;100.00;99424.63;1794791;78;25915;-77
2023/01/05 08:57:08;;;;;;;7.28;3.45;;;;;;;8.97;100.00;99433.47;1780992;79;25868;-77
2023/01/05 08:59:35;;;;;;;7.53;3.62;;;;;;;9.00;100.00;99439.71;1768094;80;26551;-77
2023/01/05 09:02:01;;;;;;;5.37;3.17;;;;;;;9.01;100.00;99437.37;1786184;79;25870;-77
2023/01/05 09:04:27;;;;;;;5.40;2.35;;;;;;;9.00;100.00;99437.05;1786852;79;27413;-78
2023/01/05 09:06:54;;;;;;;5.00;2.37;;;;;;;9.03;100.00;99439.31;1805034;79;26449;-77
2023/01/05 09:09:23;;;;;;;5.70;2.12;;;;;;;9.02;100.00;99452.88;1804283;79;25932;-78
2023/01/05 09:11:49;;;;;;;5.20;2.00;;;;;;;9.01;100.00;99444.55;1758442;80;25872;-78
2023/01/05 09:14:16;;;;;;;5.22;1.82;;;;;;;9.01;100.00;99449.89;1805670;78;26494;-77
2023/01/05 09:16:42;;;;;;;5.25;2.02;;;;;;;9.04;100.00;99450.33;1776248;79;27441;-77
2023/01/05 09:19:09;;;;;;;8.83;2.65;;;;;;;9.05;100.00;99455.96;1801345;78;25817;-77
2023/01/05 09:21:38;;;;;;;6.53;2.55;;;;;;;9.07;100.00;99461.09;1770544;80;25799;-78
2023/01/05 09:24:06;;;;;;;5.22;2.67;;;;;;;9.10;100.00;99460.69;1803687;78;25908;-77
2023/01/05 09:26:33;;;;;;;6.20;2.58;;;;;;;9.11;100.00;99464.48;1801529;79;25778;-78
2023/01/05 09:28:59;;;;;;;4.37;2.22;;;;;;;9.11;100.00;99463.15;1735167;81;27466;-77
2023/01/05 09:31:26;;;;;;;6.05;2.10;;;;;;;9.11;99.93;99471.70;1731466;81;25886;-77
2023/01/05 09:33:52;;;;;;;6.97;2.58;;;;;;;9.10;99.64;99473.55;1773594;80;25580;-78
2023/01/05 09:36:18;;;;;;;4.72;1.98;;;;;;;9.10;99.51;99482.89;1804163;78;26480;-77
2023/01/05 09:38:50;;;;;;;6.37;2.10;;;;;;;9.10;99.18;99480.22;1803774;79;25820;-77
2023/01/05 09:41:28;;;;;;;5.75;2.27;;;;;;;9.13;98.88;99470.98;1803259;79;27437;-78
2023/01/05 09:43:59;;;;;;;3.20;2.15;;;;;;;9.14;98.55;99474.77;1735230;80;25743;-77
2023/01/05 09:46:33;;;;;;;5.45;2.90;;;;;;;9.16;98.28;99478.06;1774478;79;26127;-77
2023/01/05 09:49:02;;;;;;;3.90;2.15;;;;;;;9.15;97.67;99475.61;1803766;78;26532;-78
2023/01/05 09:51:29;;;;;;;6.12;2.30;;;;;;;9.14;97.40;99473.95;1801332;79;25532;-78
2023/01/05 09:53:58;;;;;;;6.33;2.20;;;;;;;9.14;97.13;99474.77;1734970;81;27517;-77
2023/01/05 09:56:32;;;;;;;5.00;1.75;;;;;;;9.14;97.00;99465.93;1753762;81;26640;-78
2023/01/05 09:59:16;;;;;;;6.67;2.80;;;;;;;9.14;96.99;99474.77;1759840;80;25477;-86
2023/01/05 10:01:46;;;;;;;6.70;2.70;;;;;;;9.16;96.85;99470.05;1756684;80;25775;-90
2023/01/05 10:04:17;;;;;;;3.80;2.33;;;;;;;9.15;96.49;99471.06;1737780;81;25960;-88
2023/01/05 10:07:51;;;;;;;;;;;;;;;;;;;;;
2023/01/05 10:13:59;;;;;;;6.05;2.55;;;;;;;9.16;96.42;99462.03;1774762;79;25739;-90
2023/01/05 10:16:27;;;;;;;6.80;2.47;;;;;;;9.16;95.85;99465.20;1775517;80;25771;-83
2023/01/05 10:19:00;;;;;;;6.12;3.35;;;;;;;9.16;95.79;99468.71;1798287;78;25819;-89
2023/01/05 10:21:42;;;;;;;8.30;3.20;;;;;;;9.17;95.27;99469.00;1763992;79;27679;-86
2023/01/05 10:24:47;;;;;;;12.33;3.52;;;;;;;9.17;94.53;99465.00;1763963;79;25308;-84
2023/01/05 10:27:24;;;;;;;5.95;2.98;;;;;;;9.16;94.49;99461.20;1802050;78;25787;-83
2023/01/05 10:30:02;;;;;;;8.73;3.58;;;;;;;9.18;94.50;99464.48;1797191;79;25787;-83
2023/01/05 10:33:04;;;;;;;37.60;17.20;;;;;;;9.18;94.43;99462.65;1760489;80;26352;-83
2023/01/05 10:35:45;;;;;;;14.25;6.97;;;;;;;9.18;94.17;99459.98;1801968;78;27451;-87
2023/01/05 10:38:37;;;;;;;17.25;10.13;;;;;;;9.19;94.30;99464.30;1804584;79;26322;-87
2023/01/05 10:41:20;;;;;;;9.73;4.05;;;;;;;9.19;94.08;99458.97;1807078;79;25796;-79
2023/01/05 10:44:04;;;;;;;12.18;5.62;;;;;;;9.18;93.99;99460.48;1773126;80;26553;-79
2023/01/05 10:46:30;;;;;;;17.92;10.18;;;;;;;9.16;93.90;99465.20;1802456;79;25784;-78
2023/01/05 10:48:59;;;;;;;11.25;4.30;;;;;;;9.15;93.76;99468.39;1799420;78;27436;-79
2023/01/05 10:51:29;;;;;;;7.65;3.40;;;;;;;9.11;93.53;99464.48;1804294;78;26480;-79
2023/01/05 10:53:56;;;;;;;8.25;3.58;;;;;;;9.10;93.52;99460.19;1796776;79;34924;-87
2023/01/05 10:56:27;;;;;;;8.28;3.12;;;;;;;9.09;93.08;99463.04;1774374;79;25823;-77
2023/01/05 10:59:09;;;;;;;10.70;3.52;;;;;;;9.07;93.08;99469.93;1801097;78;25763;-79
2023/01/05 11:01:37;;;;;;;10.82;4.50;;;;;;;9.07;92.94;99464.59;1781262;79;27454;-78
2023/01/05 11:04:11;;;;;;;6.70;3.77;;;;;;;9.08;92.59;99468.09;1779001;79;25922;-78
2023/01/05 11:06:38;;;;;;;13.55;6.87;;;;;;;9.09;92.45;99472.39;1769422;79;25706;-78
2023/01/05 11:09:21;;;;;;;8.75;3.67;;;;;;;9.12;92.57;99474.16;1807504;78;25919;-86
2023/01/05 11:12:02;;;;;;;9.28;2.37;;;;;;;9.15;92.49;99475.06;1800049;79;25841;-84
2023/01/05 11:14:32;;;;;;;7.65;2.92;;;;;;;9.18;92.51;99470.66;1802617;79;27446;-84
2023/01/05 11:17:05;;;;;;;9.48;2.67;;;;;;;9.20;91.82;99467.78;1809755;79;25866;-85
2023/01/05 11:19:43;;;;;;;10.30;2.95;;;;;;;9.16;91.64;99467.37;1794167;79;25820;-88
2023/01/05 11:22:35;;;;;;;8.48;2.60;;;;;;;9.16;91.48;99475.39;1783154;79;26399;-89
2023/01/05 11:25:28;;;;;;;12.35;3.77;;;;;;;9.13;91.20;99477.13;1802248;79;25431;-86
2023/01/05 11:28:16;;;;;;;13.25;3.80;;;;;;;9.12;91.21;99476.00;1738531;81;25972;-81
2023/01/05 11:31:04;;;;;;;6.95;2.98;;;;;;;9.09;91.04;99478.56;1793913;79;25984;-86
2023/01/05 11:33:34;;;;;;;17.82;3.27;;;;;;;9.07;90.77;99481.95;1801509;79;25762;-85
2023/01/05 11:36:03;;;;;;;7.50;2.40;;;;;;;9.06;90.70;99483.00;1809012;79;25971;-85
2023/01/05 11:38:31;;;;;;;7.78;3.65;;;;;;;9.04;90.64;99485.05;1808971;79;25773;-85
2023/01/05 11:40:59;;;;;;;10.80;3.62;;;;;;;9.04;90.66;99485.55;1778832;79;28228;-85
2023/01/05 11:43:29;;;;;;;9.53;3.75;;;;;;;9.03;90.64;99487.91;1772486;79;26177;-84
2023/01/05 11:46:01;;;;;;;11.22;2.58;;;;;;;9.01;90.84;99484.11;1779557;79;25692;-86
2023/01/05 11:48:33;;;;;;;12.13;2.67;;;;;;;9.01;91.17;99481.95;1805252;78;26720;-84
2023/01/05 11:51:01;;;;;;;11.60;4.97;;;;;;;9.00;91.14;99478.98;1803914;79;25824;-85
2023/01/05 11:53:38;;;;;;;13.13;4.35;;;;;;;8.98;91.10;99478.36;1774085;80;28267;-84
2023/01/05 11:56:21;;;;;;;12.58;5.60;;;;;;;9.00;91.36;99483.78;1807553;78;25301;-87
2023/01/05 11:58:56;;;;;;;13.18;4.58;;;;;;;9.01;91.19;99478.77;1767306;79;25782;-83
2023/01/05 12:01:48;;;;;;;15.60;6.58;;;;;;;9.03;90.71;99475.37;1806262;79;26134;-83
2023/01/05 12:04:58;;;;;;;19.23;6.62;;;;;;;9.03;90.28;99471.88;1805818;79;25294;-81
2023/01/05 12:07:44;;;;;;;14.53;6.90;;;;;;;9.05;90.14;99476.50;1801779;79;27452;-89
2023/01/05 12:10:40;;;;;;;8.40;3.52;;;;;;;9.03;89.63;99462.53;1799167;79;25342;-85
2023/01/05 12:13:32;;;;;;;8.13;3.20;;;;;;;9.05;89.13;99469.82;1776512;80;25770;-87
2023/01/05 12:16:19;;;;;;;10.25;3.17;;;;;;;9.06;88.72;99473.65;1809146;79;25771;-85
2023/01/05 12:19:12;;;;;;;;;;;;;;;;;;;;;
2023/01/05 12:21:52;;;;;;;;;;;;;;;;;;;;;
2023/01/05 12:25:04;;;;;;;;;;;;;;;;;;;;;
2023/01/05 12:27:55;;;;;;;7.83;2.52;;;;;;;9.05;86.72;99480.00;1653143;84;32690;-84
2023/01/05 12:30:58;;;;;;;8.73;4.67;;;;;;;9.06;86.48;99479.49;1690270;82;26657;-87
2023/01/05 12:34:14;;;;;;;5.83;2.25;;;;;;;9.02;85.96;99459.05;1796310;79;25624;-88
2023/01/05 12:37:05;;;;;;;;;;;;;;;;;;;;;
2023/01/05 12:39:55;;;;;;;13.72;2.22;;;;;;;8.94;84.47;99473.13;1746661;78;25354;-88
2023/01/05 12:42:50;;;;;;;6.00;1.98;;;;;;;8.90;84.07;99469.19;1805416;79;25972;-86